Time;durP1;ratioP1;P1;durP2;ratioP2;P2;SDS_P1;SDS_P2;PMS_P1;PMS_P2;Temp;Humidity;BMP_temperature;BMP_pressure;BME280_temperature;BME280_humidity;BME280_pressure;Samples;Min_cycle;Max_cycle;Signal;HPM_P1;HPM_P2
2022/07/21 00:02:00;;;;;;;1.30;1.20;;;;;;;15.82;nan;98270.19;5058281;28;20130;-63
2022/07/21 00:04:25;;;;;;;1.85;1.48;;;;;;;15.84;nan;98270.84;5075008;28;20039;-65
2022/07/21 00:06:50;;;;;;;1.42;1.33;;;;;;;15.84;nan;98260.94;5074884;28;20574;-63
2022/07/21 00:09:15;;;;;;;2.83;1.20;;;;;;;15.84;nan;98266.31;5056234;28;20040;-64
2022/07/21 00:11:41;;;;;;;2.90;1.35;;;;;;;15.86;nan;98276.91;5074534;28;20055;-63
2022/07/21 00:14:08;;;;;;;1.23;1.13;;;;;;;15.85;nan;98273.38;5074519;28;20173;-69
2022/07/21 00:16:33;;;;;;;0.90;0.90;;;;;;;15.84;nan;98270.84;5070852;28;20047;-62
2022/07/21 00:18:59;;;;;;;2.67;1.00;;;;;;;15.84;nan;98270.84;5056202;28;20039;-65
2022/07/21 00:21:24;;;;;;;1.63;1.25;;;;;;;15.81;nan;98272.03;5030226;28;20047;-64
2022/07/21 00:23:48;;;;;;;1.33;1.10;;;;;;;15.81;nan;98269.34;5061433;28;20039;-64
2022/07/21 00:26:14;;;;;;;0.70;0.70;;;;;;;15.82;nan;98276.41;5071607;28;20067;-65
2022/07/21 00:28:39;;;;;;;1.15;1.13;;;;;;;15.82;nan;98272.88;5072534;28;20112;-63
2022/07/21 00:31:04;;;;;;;1.67;1.58;;;;;;;15.82;nan;98270.19;5064036;28;20094;-64
2022/07/21 00:33:29;;;;;;;2.20;1.88;;;;;;;15.82;nan;98264.81;5061748;28;20043;-64
2022/07/21 00:35:54;;;;;;;1.65;1.08;;;;;;;15.85;nan;98275.22;5062224;28;20077;-66
2022/07/21 00:38:18;;;;;;;2.00;1.30;;;;;;;15.86;nan;98276.91;5064598;28;20636;-65
2022/07/21 00:40:43;;;;;;;1.58;1.00;;;;;;;15.85;nan;98281.44;5044104;28;20035;-67
2022/07/21 00:43:08;;;;;;;1.40;1.20;;;;;;;15.85;nan;98269.84;5045690;28;20046;-66
2022/07/21 00:45:33;;;;;;;1.65;1.17;;;;;;;15.83;nan;98266.50;5057685;28;20044;-67
2022/07/21 00:47:58;;;;;;;1.25;1.10;;;;;;;15.83;nan;98263.81;5059639;28;20046;-70
2022/07/21 00:50:23;;;;;;;1.85;1.15;;;;;;;15.82;nan;98273.72;5055862;28;20035;-69
2022/07/21 00:52:48;;;;;;;1.20;1.10;;;;;;;15.82;nan;98267.50;5053478;28;20250;-69
2022/07/21 00:55:16;;;;;;;1.70;1.30;;;;;;;15.82;nan;98265.66;5052516;28;20071;-69
2022/07/21 00:57:42;;;;;;;0.93;0.90;;;;;;;15.82;nan;98267.50;5052804;28;20755;-68
2022/07/21 01:00:13;;;;;;;1.10;1.00;;;;;;;15.85;nan;98268.00;5044057;28;20039;-67
2022/07/21 01:02:38;;;;;;;1.77;1.10;;;;;;;15.81;nan;98263.13;5062309;28;20509;-70
2022/07/21 01:05:05;;;;;;;1.70;1.20;;;;;;;15.81;nan;98263.97;5049084;28;20085;-70
2022/07/21 01:07:29;;;;;;;2.92;1.52;;;;;;;15.81;nan;98257.78;5049248;28;20087;-67
2022/07/21 01:09:56;;;;;;;1.05;0.95;;;;;;;15.83;nan;98269.19;5065435;28;20039;-67
2022/07/21 01:12:21;;;;;;;2.40;1.48;;;;;;;15.82;nan;98270.19;5066804;28;20043;-69
2022/07/21 01:14:45;;;;;;;1.88;1.55;;;;;;;15.83;nan;98269.19;5062086;28;20048;-73
2022/07/21 01:17:10;;;;;;;2.13;1.67;;;;;;;15.82;nan;98268.34;5057079;28;20093;-70
2022/07/21 01:19:35;;;;;;;8.55;1.75;;;;;;;15.82;nan;98270.19;5057287;28;20540;-70
2022/07/21 01:22:00;;;;;;;3.47;1.60;;;;;;;15.82;nan;98267.50;5038897;28;20556;-69
2022/07/21 01:24:25;;;;;;;2.17;1.55;;;;;;;15.84;nan;98276.25;5053490;28;20105;-70
2022/07/21 01:26:52;;;;;;;2.60;1.45;;;;;;;15.86;nan;98266.16;5056393;28;20043;-70
2022/07/21 01:29:18;;;;;;;2.17;1.77;;;;;;;15.85;nan;98269.84;5039098;28;20443;-69
2022/07/21 01:31:44;;;;;;;2.85;2.03;;;;;;;15.87;nan;98270.50;5055750;28;20061;-68
2022/07/21 01:34:10;;;;;;;1.48;1.38;;;;;;;15.85;nan;98270.69;5056823;28;20048;-68
2022/07/21 01:36:35;;;;;;;4.90;2.15;;;;;;;15.86;nan;98271.53;5056906;28;20050;-69
2022/07/21 01:41:44;;;;;;;4.07;1.75;;;;;;;15.89;nan;98268.50;5056846;28;20044;-68
2022/07/21 01:44:10;;;;;;;4.07;1.90;;;;;;;15.92;nan;98273.50;5055214;28;20051;-68
2022/07/21 01:46:38;;;;;;;3.50;2.28;;;;;;;15.94;nan;98271.47;5055223;28;20047;-66
2022/07/21 01:49:04;;;;;;;3.75;2.00;;;;;;;15.93;nan;98269.78;5054579;28;20103;-66
2022/07/21 01:51:29;;;;;;;4.93;2.13;;;;;;;15.92;nan;98270.81;5055148;28;20047;-68
2022/07/21 01:53:54;;;;;;;3.25;2.00;;;;;;;15.93;nan;98264.41;5039028;28;20051;-70
2022/07/21 01:56:23;;;;;;;2.33;1.90;;;;;;;15.96;nan;98270.28;5056076;28;20044;-67
2022/07/21 01:58:51;;;;;;;3.35;1.95;;;;;;;15.94;nan;98272.31;5056280;28;20048;-71
2022/07/21 02:01:18;;;;;;;2.15;1.90;;;;;;;15.93;nan;98277.84;5058143;28;20063;-69
2022/07/21 02:03:44;;;;;;;2.70;1.88;;;;;;;15.90;nan;98273.69;5057565;28;20460;-68
2022/07/21 02:06:09;;;;;;;4.82;2.33;;;;;;;15.89;nan;98274.72;5056893;28;20071;-69
2022/07/21 02:08:35;;;;;;;2.85;2.00;;;;;;;15.91;nan;98277.22;5056832;28;20064;-71
2022/07/21 02:10:59;;;;;;;7.07;2.50;;;;;;;15.90;nan;98271.00;5056851;28;20499;-72
2022/07/21 02:13:24;;;;;;;4.03;2.38;;;;;;;15.91;nan;98266.47;5056086;28;20517;-71
2022/07/21 02:15:49;;;;;;;3.05;2.47;;;;;;;15.91;nan;98266.47;5058359;28;20085;-72
2022/07/21 02:18:14;;;;;;;2.40;1.90;;;;;;;15.91;nan;98271.84;5060124;28;20044;-68
2022/07/21 02:20:39;;;;;;;2.97;2.33;;;;;;;15.91;nan;98271.84;5065097;28;20053;-73
2022/07/21 02:23:04;;;;;;;6.18;2.50;;;;;;;15.93;nan;98272.47;5036494;28;20870;-72
2022/07/21 02:25:28;;;;;;;2.42;2.10;;;;;;;15.93;nan;98267.94;5072954;28;20103;-71
2022/07/21 02:27:53;;;;;;;4.85;3.17;;;;;;;15.92;nan;98257.38;5075083;28;20793;-69
2022/07/21 02:30:18;;;;;;;3.53;2.75;;;;;;;15.94;nan;98258.03;5076018;28;20458;-71
2022/07/21 02:32:43;;;;;;;3.20;2.30;;;;;;;15.95;nan;98260.56;5059232;28;20035;-66
2022/07/21 02:35:08;;;;;;;4.28;2.55;;;;;;;15.96;nan;98264.91;5041388;28;20044;-67
2022/07/21 02:37:33;;;;;;;2.78;2.38;;;;;;;15.97;nan;98263.06;5076997;28;20043;-67
2022/07/21 02:39:57;;;;;;;2.72;2.15;;;;;;;15.97;nan;98261.22;5058156;28;20054;-63
2022/07/21 02:42:22;;;;;;;4.20;2.75;;;;;;;15.98;nan;98264.75;5057176;28;20558;-63
2022/07/21 02:44:47;;;;;;;2.53;2.33;;;;;;;15.97;nan;98258.53;5059040;28;20049;-62
2022/07/21 02:47:12;;;;;;;3.53;2.53;;;;;;;15.99;nan;98261.03;5037880;28;20067;-62
2022/07/21 02:49:36;;;;;;;3.83;1.75;;;;;;;16.01;nan;98258.19;5056030;28;20054;-60
2022/07/21 02:52:01;;;;;;;2.90;2.40;;;;;;;16.01;nan;98258.19;5037938;28;20040;-62
2022/07/21 02:54:26;;;;;;;5.82;2.63;;;;;;;16.02;nan;98255.31;5038005;28;20568;-63
2022/07/21 02:56:51;;;;;;;6.50;2.17;;;;;;;16.03;nan;98256.97;5038354;28;20514;-62
2022/07/21 02:59:16;;;;;;;4.97;2.28;;;;;;;16.03;nan;98258.84;5056176;28;20054;-62
2022/07/21 03:01:40;;;;;;;4.45;2.47;;;;;;;16.02;nan;98255.31;5038585;28;20431;-68
2022/07/21 03:04:05;;;;;;;3.45;2.67;;;;;;;16.01;nan;98259.03;5038776;28;20105;-63
2022/07/21 03:06:30;;;;;;;4.55;2.63;;;;;;;16.00;nan;98265.41;5040113;28;20048;-61
2022/07/21 03:08:55;;;;;;;4.80;2.53;;;;;;;16.00;nan;98264.56;5057998;28;20051;-61
2022/07/21 03:11:19;;;;;;;1.80;1.70;;;;;;;16.00;nan;98259.19;5056341;28;20127;-65
2022/07/21 03:13:44;;;;;;;2.15;1.85;;;;;;;16.01;nan;98255.50;5038037;28;20050;-63
2022/07/21 03:16:09;;;;;;;3.65;2.55;;;;;;;16.01;nan;98261.72;5056132;28;20582;-65
2022/07/21 03:18:35;;;;;;;4.15;3.75;;;;;;;16.03;nan;98259.66;5063545;28;20040;-63
2022/07/21 03:21:00;;;;;;;2.80;2.50;;;;;;;16.05;nan;98246.88;5012842;28;20416;-63
2022/07/21 03:23:24;;;;;;;4.32;2.38;;;;;;;16.06;nan;98248.56;5066277;28;20403;-62
2022/07/21 03:25:49;;;;;;;2.50;2.13;;;;;;;16.07;nan;98250.22;5064233;28;20059;-63
2022/07/21 03:28:14;;;;;;;2.60;2.40;;;;;;;16.09;nan;98253.56;5065094;28;20052;-62
2022/07/21 03:30:39;;;;;;;2.40;1.60;;;;;;;16.09;nan;98248.19;5064538;28;20028;-61
2022/07/21 03:33:04;;;;;;;2.28;2.03;;;;;;;16.07;nan;98252.91;5064313;28;20467;-62
2022/07/21 03:35:29;;;;;;;3.70;2.15;;;;;;;16.03;nan;98248.91;5049586;28;20048;-64
2022/07/21 03:37:56;;;;;;;4.65;2.40;;;;;;;15.98;nan;98248.63;5065629;28;20047;-62
2022/07/21 03:40:23;;;;;;;2.13;1.92;;;;;;;15.95;nan;98246.28;5064044;28;20043;-64
2022/07/21 03:42:50;;;;;;;4.47;2.47;;;;;;;15.91;nan;98253.03;5047395;28;20066;-65
2022/07/21 03:45:15;;;;;;;3.03;1.80;;;;;;;15.86;nan;98247.34;5045865;28;20035;-64
2022/07/21 03:47:40;;;;;;;2.92;2.30;;;;;;;15.84;nan;98249.38;5046932;28;20458;-64
2022/07/21 03:50:06;;;;;;;9.05;2.40;;;;;;;15.83;nan;98243.16;5056316;28;20878;-62
2022/07/21 03:52:31;;;;;;;2.28;2.08;;;;;;;15.82;nan;98254.91;5075163;28;20386;-65
2022/07/21 03:55:08;;;;;;;2.25;1.98;;;;;;;15.80;nan;98243.50;5075020;28;20414;-66
2022/07/21 03:57:38;;;;;;;3.97;2.47;;;;;;;15.80;nan;98240.81;5066078;28;20044;-68
2022/07/21 04:00:07;;;;;;;2.72;2.10;;;;;;;15.80;nan;98240.00;5016727;28;20067;-66
2022/07/21 04:02:36;;;;;;;2.43;2.03;;;;;;;15.78;nan;98242.84;5035460;28;20163;-69
2022/07/21 04:05:03;;;;;;;2.10;1.90;;;;;;;15.78;nan;98250.09;5018061;28;20158;-70
2022/07/21 04:07:28;;;;;;;2.67;2.40;;;;;;;15.78;nan;98252.78;5036433;28;20461;-69
2022/07/21 04:09:52;;;;;;;2.38;2.17;;;;;;;15.77;nan;98251.09;5035052;28;20041;-68
2022/07/21 04:12:17;;;;;;;3.85;2.63;;;;;;;15.77;nan;98243.88;5017235;28;20098;-69
2022/07/21 04:14:42;;;;;;;4.10;1.90;;;;;;;15.79;nan;98243.69;5035704;28;20044;-69
2022/07/21 04:17:06;;;;;;;2.92;2.15;;;;;;;15.80;nan;98248.88;5036176;28;20044;-69
2022/07/21 04:19:31;;;;;;;3.83;2.95;;;;;;;15.83;nan;98245.00;5017300;28;20125;-69
2022/07/21 04:21:57;;;;;;;3.58;2.97;;;;;;;15.87;nan;98249.00;5035564;28;20422;-68
2022/07/21 04:24:22;;;;;;;3.30;2.92;;;;;;;15.93;nan;98256.34;5035396;28;20529;-69
2022/07/21 04:26:47;;;;;;;4.43;3.08;;;;;;;15.98;nan;98246.75;5037183;28;20414;-68
2022/07/21 04:29:11;;;;;;;3.47;2.60;;;;;;;16.05;nan;98254.09;5035417;28;20413;-69
2022/07/21 04:31:36;;;;;;;3.60;2.83;;;;;;;16.09;nan;98258.97;5038905;28;20105;-69
2022/07/21 04:34:01;;;;;;;2.92;2.63;;;;;;;16.13;nan;98259.44;5005161;28;20409;-70
2022/07/21 04:36:25;;;;;;;4.75;2.85;;;;;;;16.17;nan;98252.69;5039710;28;20483;-70
2022/07/21 04:38:50;;;;;;;4.97;2.95;;;;;;;16.20;nan;98255.00;5020697;28;20040;-67
2022/07/21 04:41:15;;;;;;;4.60;3.45;;;;;;;16.21;nan;98256.69;5038174;28;20450;-69
2022/07/21 04:43:40;;;;;;;4.07;3.00;;;;;;;16.23;nan;98255.50;5020257;28;20047;-68
2022/07/21 04:46:05;;;;;;;7.38;3.58;;;;;;;16.27;nan;98251.41;5003546;28;20044;-68
2022/07/21 04:48:30;;;;;;;5.00;3.28;;;;;;;16.31;nan;98247.38;5038205;28;20051;-69
2022/07/21 04:50:55;;;;;;;4.40;3.53;;;;;;;16.36;nan;98251.38;5019980;28;20044;-68
2022/07/21 04:53:19;;;;;;;5.90;3.28;;;;;;;16.39;nan;98256.38;5038175;28;20063;-69
2022/07/21 04:55:44;;;;;;;5.10;3.72;;;;;;;16.43;nan;98260.38;5038152;28;20086;-69
2022/07/21 04:58:09;;;;;;;5.72;4.10;;;;;;;16.47;nan;98253.66;4995837;28;20542;-69
2022/07/21 05:00:34;;;;;;;4.97;3.85;;;;;;;16.52;nan;98264.69;4996523;28;20164;-67
2022/07/21 05:02:59;;;;;;;5.97;3.30;;;;;;;16.59;nan;98255.69;4995954;28;20053;-69
2022/07/21 05:05:24;;;;;;;6.82;3.47;;;;;;;16.70;nan;98257.97;4979304;28;20356;-70
2022/07/21 05:07:49;;;;;;;3.65;3.30;;;;;;;16.82;nan;98255.69;4995613;28;20508;-68
2022/07/21 05:10:16;;;;;;;6.25;3.75;;;;;;;16.95;nan;98255.91;4995261;28;20107;-68
2022/07/21 05:12:41;;;;;;;5.18;2.90;;;;;;;17.00;nan;98255.38;4978659;28;20553;-67
2022/07/21 05:15:09;;;;;;;5.40;3.13;;;;;;;17.06;nan;98263.53;4995391;28;20049;-68
2022/07/21 05:17:34;;;;;;;3.00;2.58;;;;;;;17.08;nan;98255.28;4978684;28;20049;-68
2022/07/21 05:19:59;;;;;;;4.07;3.03;;;;;;;17.12;nan;98259.28;4978795;28;20898;-68
2022/07/21 05:22:24;;;;;;;4.68;3.42;;;;;;;17.17;nan;98264.09;4995240;28;20056;-68
2022/07/21 05:24:49;;;;;;;2.97;2.75;;;;;;;17.23;nan;98261.50;4995364;28;20057;-71
2022/07/21 05:27:14;;;;;;;3.47;3.17;;;;;;;17.30;nan;98250.81;4994931;28;20041;-68
2022/07/21 05:29:38;;;;;;;4.85;3.72;;;;;;;17.38;nan;98259.63;5025061;28;20075;-69
2022/07/21 05:32:04;;;;;;;4.78;2.92;;;;;;;17.47;nan;98260.41;5019271;28;20044;-69
2022/07/21 05:34:28;;;;;;;3.33;3.00;;;;;;;17.54;nan;98264.00;5019044;28;20048;-69
2022/07/21 05:36:53;;;;;;;3.40;2.75;;;;;;;17.63;nan;98271.00;5036995;28;20040;-68
2022/07/21 05:39:18;;;;;;;5.82;2.97;;;;;;;17.74;nan;98273.19;5037090;28;20041;-68
2022/07/21 05:41:43;;;;;;;3.65;3.20;;;;;;;17.85;nan;98273.75;5017895;28;20495;-68
2022/07/21 05:44:08;;;;;;;3.38;3.08;;;;;;;17.97;nan;98280.31;5039117;28;20052;-68
2022/07/21 05:46:33;;;;;;;3.70;3.15;;;;;;;18.13;nan;98272.84;5021858;28;20063;-67
2022/07/21 05:48:57;;;;;;;2.78;2.50;;;;;;;18.32;nan;98271.38;5023365;28;20063;-69
2022/07/21 05:51:22;;;;;;;4.85;2.88;;;;;;;18.47;nan;98269.47;5023824;28;20048;-69
2022/07/21 05:53:47;;;;;;;3.00;2.70;;;;;;;18.71;nan;98276.34;5040996;28;20040;-69
2022/07/21 05:56:12;;;;;;;2.95;2.65;;;;;;;19.11;nan;98261.28;5018820;28;20037;-68
2022/07/21 05:58:37;;;;;;;3.40;2.88;;;;;;;19.49;nan;98264.47;5036648;28;20054;-68
2022/07/21 06:01:08;;;;;;;4.55;3.00;;;;;;;19.86;nan;98265.88;5018702;28;20037;-69
2022/07/21 06:03:32;;;;;;;4.38;3.20;;;;;;;20.24;nan;98262.66;5018970;28;20044;-69
2022/07/21 06:05:57;;;;;;;3.20;2.85;;;;;;;20.54;nan;98274.81;5034365;28;20044;-69
2022/07/21 06:08:22;;;;;;;5.70;3.17;;;;;;;20.71;nan;98277.13;5038621;28;20047;-68
2022/07/21 06:10:47;;;;;;;3.67;2.67;;;;;;;20.74;nan;98274.84;5038726;28;20043;-70
2022/07/21 06:13:11;;;;;;;4.85;3.15;;;;;;;20.66;nan;98272.34;5056766;28;20044;-68
2022/07/21 06:15:36;;;;;;;3.83;3.03;;;;;;;20.49;nan;98277.31;5038772;28;20082;-68
2022/07/21 06:18:01;;;;;;;3.65;2.90;;;;;;;20.31;nan;98275.16;5056854;28;20097;-67
2022/07/21 06:20:26;;;;;;;4.70;3.50;;;;;;;20.20;nan;98273.06;5056772;28;20506;-70
2022/07/21 06:22:50;;;;;;;4.05;3.17;;;;;;;20.14;nan;98283.88;5056653;28;20054;-69
2022/07/21 06:25:15;;;;;;;4.32;3.00;;;;;;;20.08;nan;98280.13;5058850;28;20040;-69
2022/07/21 06:27:40;;;;;;;3.75;2.88;;;;;;;20.09;nan;98278.25;5057074;28;20521;-70
2022/07/21 06:30:05;;;;;;;4.38;3.17;;;;;;;20.04;nan;98283.44;5057388;28;20502;-69
2022/07/21 06:32:30;;;;;;;8.43;3.22;;;;;;;19.99;nan;98278.59;5039070;28;20104;-64
2022/07/21 06:34:55;;;;;;;7.72;3.75;;;;;;;20.02;nan;98274.66;5058163;28;20040;-62
2022/07/21 06:37:21;;;;;;;4.00;2.97;;;;;;;20.02;nan;98285.50;5057294;28;20040;-62
2022/07/21 06:39:46;;;;;;;6.57;3.30;;;;;;;19.99;nan;98277.78;5037784;28;20498;-60
2022/07/21 06:42:11;;;;;;;3.92;3.20;;;;;;;20.06;nan;98279.47;5055725;28;20395;-62
2022/07/21 06:44:35;;;;;;;5.38;3.60;;;;;;;20.46;nan;98277.72;5055623;28;20039;-63
2022/07/21 06:47:04;;;;;;;5.63;2.90;;;;;;;21.25;nan;98280.47;5037660;28;20189;-62
2022/07/21 06:49:29;;;;;;;3.88;3.50;;;;;;;21.87;nan;98281.78;5055955;28;20047;-62
2022/07/21 06:51:53;;;;;;;5.55;2.80;;;;;;;22.40;nan;98284.25;5037028;28;20048;-62
2022/07/21 06:54:18;;;;;;;2.97;2.35;;;;;;;22.91;nan;98292.28;5055822;28;20359;-61
2022/07/21 06:56:43;;;;;;;3.25;2.78;;;;;;;23.30;nan;98287.56;5037631;28;20039;-63
2022/07/21 06:59:07;;;;;;;3.22;2.92;;;;;;;23.61;nan;98289.38;5037518;28;20123;-62
2022/07/21 07:01:33;;;;;;;2.50;2.30;;;;;;;23.65;nan;98291.41;5055343;28;20039;-63
2022/07/21 07:03:58;;;;;;;3.72;2.90;;;;;;;23.33;nan;98293.41;5055469;28;20089;-62
2022/07/21 07:06:23;;;;;;;3.08;2.65;;;;;;;22.95;nan;98306.28;5055378;28;20052;-61
2022/07/21 07:08:48;;;;;;;9.93;3.17;;;;;;;22.55;nan;98297.56;5037231;28;20048;-63
2022/07/21 07:11:12;;;;;;;6.10;2.50;;;;;;;22.06;nan;98304.50;5055364;28;20551;-62
2022/07/21 07:13:37;;;;;;;3.20;2.75;;;;;;;21.56;nan;98306.91;5055083;28;20077;-62
2022/07/21 07:16:02;;;;;;;2.53;2.25;;;;;;;21.06;nan;98321.97;5037183;28;20047;-63
2022/07/21 07:18:27;;;;;;;8.48;3.08;;;;;;;20.77;nan;98320.47;5055431;28;20040;-61
2022/07/21 07:20:52;;;;;;;4.85;3.20;;;;;;;20.74;nan;98325.47;5036484;28;20048;-62
2022/07/21 07:23:17;;;;;;;3.38;2.83;;;;;;;21.07;nan;98326.34;5054953;28;20040;-63
2022/07/21 07:34:56;;;;;;;4.07;2.72;;;;;;;21.19;nan;98342.84;5034806;28;19923;-70
2022/07/21 07:37:21;;;;;;;3.75;2.72;;;;;;;20.85;nan;98350.09;5035145;28;20032;-68
2022/07/21 07:39:46;;;;;;;5.88;2.83;;;;;;;20.59;nan;98353.56;5035051;28;20051;-69
2022/07/21 07:42:11;;;;;;;4.80;2.85;;;;;;;20.20;nan;98356.13;5000937;28;20036;-68
2022/07/21 07:44:36;;;;;;;10.65;3.28;;;;;;;19.89;nan;98360.13;5016813;28;20044;-69
2022/07/21 07:47:03;;;;;;;6.50;3.30;;;;;;;19.83;nan;98366.34;5035004;28;20044;-71
2022/07/21 07:49:31;;;;;;;3.25;2.30;;;;;;;19.92;nan;98367.84;5034794;28;20041;-70
2022/07/21 07:51:57;;;;;;;2.70;2.15;;;;;;;19.89;nan;98373.66;5034603;28;20051;-69
2022/07/21 07:54:22;;;;;;;3.90;2.55;;;;;;;19.73;nan;98374.00;5034656;28;20036;-71
2022/07/21 07:56:46;;;;;;;5.25;2.80;;;;;;;19.53;nan;98381.97;5016448;28;20048;-63
2022/07/21 07:59:11;;;;;;;4.40;2.53;;;;;;;19.39;nan;98388.28;5016388;28;20048;-62
2022/07/21 08:01:36;;;;;;;3.63;2.42;;;;;;;19.28;nan;98385.28;5034487;28;20052;-63
2022/07/21 08:04:01;;;;;;;6.43;3.55;;;;;;;19.31;nan;98390.28;5034770;28;20040;-70
2022/07/21 08:06:26;;;;;;;7.95;2.88;;;;;;;19.65;nan;98386.81;5021091;28;20079;-71
2022/07/21 08:08:51;;;;;;;3.47;2.75;;;;;;;19.94;nan;98398.25;5021262;28;20071;-71
2022/07/21 08:11:16;;;;;;;2.67;2.47;;;;;;;20.00;nan;98401.19;5038907;28;20048;-71
2022/07/21 08:13:41;;;;;;;3.00;2.63;;;;;;;19.81;nan;98398.16;5038549;28;20040;-67
2022/07/21 08:16:06;;;;;;;9.10;4.50;;;;;;;19.57;nan;98404.03;5038285;28;20507;-68
2022/07/21 08:18:31;;;;;;;8.15;3.78;;;;;;;19.30;nan;98411.06;5020408;28;20047;-67
2022/07/21 08:20:55;;;;;;;6.68;3.90;;;;;;;18.75;nan;98422.56;5038035;28;20048;-67
2022/07/21 08:23:20;;;;;;;7.93;4.00;;;;;;;18.08;nan;98415.50;5020438;28;20101;-68
2022/07/21 08:25:45;;;;;;;10.65;4.03;;;;;;;17.74;nan;98426.84;5038289;28;20094;-68
2022/07/21 08:28:10;;;;;;;8.65;3.83;;;;;;;17.47;nan;98421.22;5039648;28;20472;-69
2022/07/21 08:30:35;;;;;;;6.95;3.95;;;;;;;17.21;nan;98435.91;5038608;28;20278;-70
2022/07/21 08:33:01;;;;;;;5.93;3.78;;;;;;;17.01;nan;98437.44;5040215;28;20045;-69
2022/07/21 08:35:26;;;;;;;11.80;4.93;;;;;;;16.81;nan;98431.69;5020602;28;20120;-69
2022/07/21 08:38:04;;;;;;;9.20;4.55;;;;;;;16.83;nan;98445.78;5038255;28;20051;-70
2022/07/21 08:40:32;;;;;;;7.53;3.92;;;;;;;16.95;nan;98455.13;5038217;28;20132;-69
2022/07/21 08:42:57;;;;;;;6.18;4.63;;;;;;;17.58;nan;98448.56;5038121;28;20040;-70
2022/07/21 08:45:22;;;;;;;7.80;4.55;;;;;;;19.29;nan;98452.66;5038211;28;20044;-70
2022/07/21 08:47:52;;;;;;;6.30;4.32;;;;;;;21.18;nan;98454.97;5020587;28;20040;-68
2022/07/21 08:50:17;;;;;;;7.05;4.22;;;;;;;22.72;nan;98458.97;5020210;28;20041;-69
2022/07/21 08:52:42;;;;;;;9.38;4.10;;;;;;;24.33;nan;98462.00;5020426;28;20098;-69
2022/07/21 08:55:07;;;;;;;7.35;5.15;;;;;;;24.99;nan;98459.34;5038012;28;20040;-68
2022/07/21 08:57:32;;;;;;;8.40;4.55;;;;;;;25.90;nan;98455.41;5038644;28;20040;-68
2022/07/21 08:59:56;;;;;;;5.47;3.70;;;;;;;26.73;nan;98474.25;5038150;28;20040;-69
2022/07/21 09:02:29;;;;;;;5.72;3.90;;;;;;;27.00;nan;98475.38;5038109;28;20068;-69
2022/07/21 09:04:54;;;;;;;5.47;4.47;;;;;;;27.60;nan;98474.88;5021470;28;20040;-69
2022/07/21 09:07:19;;;;;;;4.88;4.20;;;;;;;27.50;nan;98476.59;5041477;28;20070;-68
2022/07/21 09:09:55;;;;;;;4.88;4.20;;;;;;;27.97;nan;98482.63;5038931;28;20048;-68
2022/07/21 09:12:20;;;;;;;4.30;3.70;;;;;;;29.64;nan;98550.72;5038106;28;20036;-68
2022/07/21 09:14:44;;;;;;;4.93;4.28;;;;;;;31.34;nan;98478.97;5039191;28;20132;-68
2022/07/21 09:17:10;;;;;;;5.15;4.20;;;;;;;32.25;nan;98486.50;5021161;28;20534;-69
2022/07/21 09:19:44;;;;;;;5.32;4.13;;;;;;;32.19;nan;98496.69;5039584;28;20041;-67
2022/07/21 09:22:18;;;;;;;4.88;4.00;;;;;;;32.55;nan;98502.16;5038220;28;20617;-69
2022/07/21 09:24:49;;;;;;;5.45;4.45;;;;;;;32.07;nan;98502.47;5037466;28;20044;-68
2022/07/21 09:27:26;;;;;;;7.72;4.95;;;;;;;31.43;nan;98507.63;5019724;28;20045;-69
2022/07/21 09:29:58;;;;;;;6.78;4.22;;;;;;;31.60;nan;98501.91;5019223;28;20123;-69
2022/07/21 09:32:34;;;;;;;4.40;3.80;;;;;;;32.01;nan;98513.78;5037522;28;20060;-69
2022/07/21 09:35:13;;;;;;;4.00;3.60;;;;;;;31.19;nan;98515.56;5037353;28;20079;-69
2022/07/21 09:37:39;;;;;;;4.00;3.35;;;;;;;29.99;nan;98522.78;5019110;28;20089;-62
2022/07/21 09:40:07;;;;;;;7.43;5.45;;;;;;;28.42;nan;98518.16;5020484;28;20048;-62
2022/07/21 09:42:37;;;;;;;4.78;3.63;;;;;;;27.11;nan;98520.19;5019824;28;20044;-61
2022/07/21 09:45:06;;;;;;;4.28;3.60;;;;;;;27.11;nan;98522.91;5018768;28;20044;-61
2022/07/21 09:47:32;;;;;;;3.60;3.20;;;;;;;29.44;nan;98534.03;5036931;28;20534;-62
2022/07/21 09:49:59;;;;;;;3.78;3.13;;;;;;;31.67;nan;98528.09;5019514;28;20037;-61
2022/07/21 09:52:25;;;;;;;5.85;3.35;;;;;;;33.22;nan;98590.03;5037274;28;20071;-63
2022/07/21 09:54:52;;;;;;;2.95;2.75;;;;;;;34.52;nan;98580.44;5036953;28;20495;-62
2022/07/21 09:57:17;;;;;;;5.38;3.47;;;;;;;35.86;nan;98594.13;5018942;28;20055;-62
2022/07/21 09:59:44;;;;;;;3.42;3.22;;;;;;;36.86;nan;98581.66;5036628;28;20127;-63
2022/07/21 10:02:16;;;;;;;4.35;3.72;;;;;;;37.63;nan;98603.22;5036636;28;20053;-62
2022/07/21 10:04:42;;;;;;;4.70;3.72;;;;;;;38.96;nan;98534.75;5018531;28;20139;-62
2022/07/21 10:07:07;;;;;;;4.50;4.10;;;;;;;40.49;nan;98538.09;5018739;28;20036;-63
2022/07/21 10:09:32;;;;;;;4.20;4.00;;;;;;;41.86;nan;98541.38;5036451;28;20044;-63
2022/07/21 10:11:57;;;;;;;5.22;4.88;;;;;;;42.65;nan;98545.91;5036076;28;20055;-63
2022/07/21 10:14:22;;;;;;;5.85;5.35;;;;;;;43.06;nan;98546.91;5036251;28;20529;-63
2022/07/21 10:16:47;;;;;;;6.10;5.60;;;;;;;42.90;nan;98557.19;5018296;28;20507;-63
2022/07/21 10:19:23;;;;;;;5.47;5.07;;;;;;;42.55;nan;98559.56;5036079;28;20040;-63
2022/07/21 10:22:02;;;;;;;5.30;4.97;;;;;;;41.13;nan;98562.41;5035767;28;20049;-62
2022/07/21 10:24:30;;;;;;;5.38;4.97;;;;;;;40.91;nan;98558.69;5036915;28;20055;-65
2022/07/21 10:27:15;;;;;;;4.85;4.55;;;;;;;41.03;nan;98566.38;5039114;28;20399;-64
2022/07/21 10:29:58;;;;;;;5.13;4.53;;;;;;;41.30;nan;98549.16;5039888;28;20066;-65
2022/07/21 10:32:26;;;;;;;5.05;4.63;;;;;;;41.74;nan;98569.31;5039699;28;20060;-63
2022/07/21 10:34:53;;;;;;;5.07;4.78;;;;;;;40.73;nan;98570.28;5036746;28;20045;-63
2022/07/21 10:37:39;;;;;;;4.10;3.80;;;;;;;37.41;nan;98556.66;5018275;28;20094;-62
2022/07/21 10:40:25;;;;;;;4.45;3.42;;;;;;;33.84;nan;98561.03;5035945;28;20119;-63
2022/07/21 10:42:58;;;;;;;3.50;3.20;;;;;;;31.97;nan;98549.34;5024929;28;20041;-62
2022/07/21 10:45:39;;;;;;;3.10;2.80;;;;;;;30.79;nan;98546.47;5036010;28;20051;-62
2022/07/21 10:48:07;;;;;;;3.45;3.13;;;;;;;29.78;nan;98551.16;5035628;28;20040;-62
2022/07/21 10:50:35;;;;;;;3.42;3.13;;;;;;;29.16;nan;98555.09;5035572;28;20461;-63
2022/07/21 10:53:03;;;;;;;4.47;2.78;;;;;;;28.38;nan;98555.34;5035402;28;20128;-62
2022/07/21 10:55:31;;;;;;;5.03;2.63;;;;;;;27.48;nan;98556.22;5035609;28;20051;-68
2022/07/21 10:58:17;;;;;;;6.90;2.97;;;;;;;27.07;nan;98557.31;5035390;28;20075;-63
2022/07/21 11:00:56;;;;;;;12.23;3.58;;;;;;;26.75;nan;98560.44;5035464;28;20040;-62
2022/07/21 11:03:28;;;;;;;6.15;3.20;;;;;;;26.41;nan;98550.38;5018000;28;20040;-62
2022/07/21 11:06:06;;;;;;;6.30;2.85;;;;;;;26.17;nan;98545.94;5018079;28;20087;-62
2022/07/21 11:08:38;;;;;;;3.90;3.17;;;;;;;25.75;nan;98548.69;5000463;28;20507;-60
2022/07/21 11:11:13;;;;;;;2.90;2.60;;;;;;;25.83;nan;98551.13;5035380;28;20055;-62
2022/07/21 11:14:04;;;;;;;2.72;2.53;;;;;;;25.89;nan;98549.34;5035569;28;20392;-62
2022/07/21 11:16:41;;;;;;;2.63;2.42;;;;;;;25.87;nan;98554.19;5011886;28;20126;-63
2022/07/21 11:19:30;;;;;;;4.43;2.75;;;;;;;25.89;nan;98562.97;5035281;28;20048;-60
2022/07/21 11:21:56;;;;;;;4.10;2.55;;;;;;;25.49;nan;98571.75;5035364;28;20091;-61
2022/07/21 11:24:23;;;;;;;4.65;2.83;;;;;;;25.20;nan;98578.00;5035276;28;20051;-62
2022/07/21 11:27:09;;;;;;;4.10;2.70;;;;;;;24.69;nan;98592.00;5017242;28;20051;-62
2022/07/21 11:29:37;;;;;;;5.47;3.13;;;;;;;23.26;nan;98601.78;5035357;28;20096;-61
2022/07/21 11:32:02;;;;;;;5.97;3.38;;;;;;;21.76;nan;98597.16;5000770;28;20103;-61
2022/07/21 11:34:54;;;;;;;5.20;3.10;;;;;;;21.02;nan;98607.94;5017407;28;20040;-62
2022/07/21 11:37:36;;;;;;;3.75;2.95;;;;;;;20.38;nan;98605.47;5017046;28;20037;-60
2022/07/21 11:40:07;;;;;;;5.10;3.00;;;;;;;19.85;nan;98601.47;4983922;28;20127;-61
2022/07/21 11:42:33;;;;;;;5.88;3.30;;;;;;;19.61;nan;98616.22;5017106;28;20040;-61
2022/07/21 11:44:58;;;;;;;4.00;2.63;;;;;;;19.54;nan;98594.50;5017131;28;20044;-61
2022/07/21 11:47:25;;;;;;;3.05;2.80;;;;;;;19.33;nan;98612.53;5035533;28;20051;-61
2022/07/21 11:49:52;;;;;;;3.80;3.03;;;;;;;19.16;nan;98610.06;5035296;28;20456;-62
2022/07/21 11:52:17;;;;;;;6.95;3.10;;;;;;;19.16;nan;98599.25;5000357;28;20036;-65
2022/07/21 11:54:51;;;;;;;4.65;2.78;;;;;;;19.36;nan;98601.34;5000372;28;20047;-65
2022/07/21 11:57:19;;;;;;;3.47;3.17;;;;;;;19.45;nan;98602.91;5035804;28;20123;-64
2022/07/21 11:59:45;;;;;;;5.07;3.45;;;;;;;19.51;nan;98603.00;5017122;28;20052;-67
2022/07/21 12:02:11;;;;;;;8.57;2.92;;;;;;;19.75;nan;98606.38;5017296;28;20479;-67